createdAt,value
2018-05-11T00:01:47.793Z,95040
2018-05-11T00:06:42.240Z,95040
2018-05-11T00:11:36.700Z,95053
2018-05-11T00:16:31.566Z,95053
2018-05-11T00:21:25.738Z,95056
2018-05-11T00:26:20.675Z,95053
2018-05-11T00:31:15.132Z,95053
2018-05-11T00:36:10.064Z,95050
2018-05-11T00:41:04.702Z,95053
2018-05-11T00:45:59.613Z,95069
2018-05-11T00:50:54.508Z,95058
2018-05-11T00:55:49.461Z,95061
2018-05-11T01:00:44.394Z,95064
2018-05-11T01:05:39.184Z,95049
2018-05-11T01:10:34.104Z,95071
2018-05-11T01:15:29.319Z,95068
2018-05-11T01:20:23.801Z,95065
2018-05-11T01:25:18.364Z,95062
2018-05-11T01:30:13.079Z,95061
2018-05-11T01:35:07.950Z,95064
2018-05-11T01:40:02.773Z,95058
2018-05-11T01:44:57.043Z,95058
2018-05-11T01:49:51.800Z,95053
2018-05-11T01:54:46.132Z,95049
2018-05-11T01:59:40.871Z,95039
2018-05-11T02:04:35.423Z,95054
2018-05-11T02:09:30.044Z,95062
2018-05-11T02:14:25.048Z,95057
2018-05-11T02:19:19.383Z,95060
2018-05-11T02:24:13.916Z,95061
2018-05-11T02:29:08.767Z,95066
2018-05-11T02:34:03.683Z,95071
2018-05-11T02:38:58.637Z,95074
2018-05-11T02:43:53.495Z,95074
2018-05-11T02:48:48.659Z,95080
2018-05-11T02:53:43.358Z,95053
2018-05-11T02:58:38.236Z,95082
2018-05-11T03:03:33.075Z,95091
2018-05-11T03:08:28.124Z,95102
2018-05-11T03:13:22.921Z,95098
2018-05-11T03:18:17.839Z,95097
2018-05-11T03:23:12.335Z,95110
2018-05-11T03:28:07.450Z,95125
2018-05-11T03:33:02.202Z,95128
2018-05-11T03:37:56.765Z,95132
2018-05-11T03:42:51.530Z,95146
2018-05-11T03:47:46.060Z,95146
2018-05-11T03:52:41.032Z,95151
2018-05-11T03:57:35.929Z,95165
2018-05-11T04:02:30.088Z,95165
2018-05-11T04:07:25.103Z,95171
2018-05-11T04:12:19.787Z,95166
2018-05-11T04:17:14.542Z,95174
2018-05-11T04:22:09.489Z,95184
2018-05-11T04:27:04.473Z,95172
2018-05-11T04:31:59.333Z,95184
2018-05-11T04:36:54.409Z,95181
2018-05-11T04:41:48.482Z,95184
2018-05-11T04:46:43.501Z,95192
2018-05-11T04:51:38.301Z,95202
2018-05-11T04:56:32.538Z,95205
2018-05-11T05:01:27.797Z,95210
2018-05-11T05:06:22.647Z,95204
2018-05-11T05:11:17.188Z,95215
2018-05-11T05:16:11.538Z,95193
2018-05-11T05:21:06.892Z,95226
2018-05-11T05:26:01.658Z,95221
2018-05-11T05:30:56.342Z,95226
2018-05-11T05:35:50.667Z,95218
2018-05-11T05:40:44.343Z,95212
2018-05-11T05:45:39.288Z,95218
2018-05-11T05:50:34.145Z,95221
2018-05-11T05:55:29.269Z,95215
2018-05-11T06:00:23.610Z,95226
2018-05-11T06:05:18.456Z,95227
2018-05-11T06:10:13.244Z,95232
2018-05-11T06:15:08.170Z,95230
2018-05-11T06:20:03.218Z,95243
2018-05-11T06:24:58.312Z,95255
2018-05-11T06:29:52.613Z,95264
2018-05-11T06:34:47.568Z,95262
2018-05-11T06:39:42.270Z,95261
2018-05-11T06:44:37.017Z,95262
2018-05-11T06:49:31.665Z,95267
2018-05-11T06:54:26.855Z,95271
2018-05-11T06:59:21.864Z,95269
2018-05-11T07:04:16.174Z,95274
2018-05-11T07:09:10.863Z,95289
2018-05-11T07:14:05.848Z,95290
2018-05-11T07:19:00.715Z,95286
2018-05-11T07:23:55.700Z,95289
2018-05-11T07:28:49.954Z,95303
2018-05-11T07:33:45.144Z,95306
2018-05-11T07:38:40.129Z,95306
2018-05-11T07:43:32.482Z,95311
2018-05-11T07:48:26.595Z,95309
2018-05-11T07:53:21.511Z,95321
2018-05-11T07:58:16.647Z,95321
2018-05-11T08:03:11.638Z,95323
2018-05-11T08:08:06.698Z,95329
2018-05-11T08:13:01.593Z,95337
2018-05-11T08:17:56.675Z,95320
2018-05-11T08:22:51.746Z,95318
2018-05-11T08:27:46.355Z,95322
2018-05-11T08:32:41.508Z,95320
2018-05-11T08:37:36.845Z,95315
2018-05-11T08:42:32.001Z,95323
2018-05-11T08:47:26.724Z,95315
2018-05-11T08:52:21.456Z,95314
2018-05-11T08:57:16.503Z,95310
2018-05-11T09:02:11.266Z,95315
2018-05-11T09:07:06.286Z,95299
2018-05-11T09:12:01.780Z,95312
2018-05-11T09:16:56.971Z,95301
2018-05-11T09:21:52.031Z,95307
2018-05-11T09:26:46.612Z,95303
2018-05-11T09:31:41.235Z,95309
2018-05-11T09:36:35.814Z,95294
2018-05-11T09:41:31.012Z,95308
2018-05-11T09:46:25.761Z,95316
2018-05-11T09:51:20.540Z,95317
2018-05-11T09:56:15.421Z,95306
2018-05-11T10:01:10.616Z,95305
2018-05-11T10:06:05.596Z,95309
2018-05-11T10:11:01.412Z,95313
2018-05-11T10:15:55.003Z,95306
2018-05-11T10:20:50.190Z,95310
2018-05-11T10:25:44.892Z,95315
2018-05-11T10:30:40.008Z,95314
2018-05-11T10:35:34.870Z,95300
2018-05-11T10:40:29.790Z,95294
2018-05-11T10:45:24.499Z,95296
2018-05-11T10:50:19.680Z,95309
2018-05-11T10:55:14.854Z,95296
2018-05-11T11:00:09.666Z,95300
2018-05-11T11:05:03.966Z,95301
2018-05-11T11:09:58.917Z,95293
2018-05-11T11:14:54.146Z,95273
2018-05-11T11:19:48.741Z,95279
2018-05-11T11:24:44.181Z,95273
2018-05-11T11:29:39.661Z,95265
2018-05-11T11:34:34.850Z,95268
2018-05-11T11:39:29.565Z,95264
2018-05-11T11:44:24.707Z,95264
2018-05-11T11:49:19.617Z,95258
2018-05-11T11:54:14.888Z,95232
2018-05-11T11:59:09.936Z,95254
2018-05-11T12:04:05.428Z,95263
2018-05-11T12:09:00.304Z,95280
2018-05-11T12:13:54.604Z,95281
2018-05-11T12:18:48.598Z,95294
2018-05-11T12:23:42.334Z,95302
2018-05-11T12:28:36.467Z,95340
2018-05-11T12:33:30.368Z,95345
2018-05-11T12:38:24.552Z,95365
2018-05-11T12:43:18.842Z,95377
2018-05-11T12:48:13.537Z,95379
2018-05-11T12:53:07.961Z,95369
2018-05-11T12:58:02.631Z,95353
2018-05-11T13:02:57.307Z,95341
2018-05-11T13:07:52.108Z,95351
2018-05-11T13:12:47.117Z,95382
2018-05-11T13:17:41.759Z,95423
2018-05-11T13:22:36.083Z,95409
2018-05-11T13:27:30.509Z,95402
2018-05-11T13:32:24.971Z,95390
2018-05-11T13:37:19.285Z,95375
2018-05-11T13:42:14.396Z,95362
2018-05-11T13:47:09.080Z,95357
2018-05-11T13:52:03.533Z,95346
2018-05-11T13:56:58.718Z,95358
2018-05-11T14:01:53.271Z,95364
2018-05-11T14:06:48.042Z,95367
2018-05-11T14:11:43.313Z,95373
2018-05-11T14:16:38.304Z,95376
2018-05-11T14:21:33.265Z,95383
2018-05-11T14:26:27.935Z,95387
2018-05-11T14:31:22.574Z,95383
2018-05-11T14:36:17.418Z,95378
2018-05-11T14:41:12.248Z,95377
2018-05-11T14:46:06.844Z,95369
2018-05-11T14:51:01.891Z,95375
2018-05-11T14:55:56.719Z,95381
2018-05-11T15:00:51.703Z,95358
2018-05-11T15:05:46.303Z,95371
2018-05-11T15:10:41.286Z,95366
2018-05-11T15:15:36.228Z,95370
2018-05-11T15:20:30.747Z,95363
2018-05-11T15:25:25.173Z,95361
2018-05-11T15:30:19.631Z,95360
2018-05-11T15:35:14.688Z,95365
2018-05-11T15:40:09.505Z,95375
2018-05-11T15:45:04.269Z,95370
2018-05-11T15:49:59.367Z,95361
2018-05-11T15:54:53.947Z,95373
2018-05-11T15:59:48.349Z,95361
2018-05-11T16:04:43.442Z,95380
2018-05-11T16:09:38.293Z,95377
2018-05-11T16:14:33.258Z,95377
2018-05-11T16:19:28.327Z,95367
2018-05-11T16:24:23.404Z,95361
2018-05-11T16:29:18.371Z,95368
2018-05-11T16:34:13.449Z,95380
2018-05-11T16:39:08.179Z,95377
2018-05-11T16:44:03.148Z,95364
2018-05-11T16:48:57.621Z,95374
2018-05-11T16:53:52.861Z,95372
2018-05-11T16:58:47.705Z,95367
2018-05-11T17:03:42.398Z,95376
2018-05-11T17:08:37.252Z,95360
2018-05-11T17:13:32.096Z,95356
2018-05-11T17:18:26.821Z,95363
2018-05-11T17:23:21.638Z,95357
2018-05-11T17:28:16.105Z,95359
2018-05-11T17:33:10.937Z,95363
2018-05-11T17:38:05.808Z,95363
2018-05-11T17:42:59.906Z,95370
2018-05-11T17:47:54.720Z,95373
2018-05-11T17:52:49.738Z,95381
2018-05-11T17:57:44.603Z,95381
2018-05-11T18:02:39.834Z,95387
2018-05-11T18:07:34.857Z,95388
2018-05-11T18:12:29.922Z,95399
2018-05-11T18:17:24.858Z,95395
2018-05-11T18:22:19.573Z,95399
2018-05-11T18:27:14.504Z,95403
2018-05-11T18:32:09.017Z,95408
2018-05-11T18:37:04.240Z,95413
2018-05-11T18:41:58.974Z,95423
2018-05-11T18:46:53.651Z,95419
2018-05-11T18:51:48.605Z,95429
2018-05-11T18:56:43.409Z,95446
2018-05-11T19:01:37.998Z,95448
2018-05-11T19:06:32.589Z,95447
2018-05-11T19:11:27.143Z,95452
2018-05-11T19:16:22.381Z,95463
2018-05-11T19:21:16.545Z,95463
2018-05-11T19:26:11.168Z,95459
2018-05-11T19:31:05.628Z,95463
2018-05-11T19:36:00.514Z,95452
2018-05-11T19:40:55.481Z,95450
2018-05-11T19:45:50.082Z,95452
2018-05-11T19:50:45.066Z,95452
2018-05-11T19:55:39.347Z,95452
2018-05-11T20:00:33.892Z,95452
2018-05-11T20:05:28.527Z,95471
2018-05-11T20:10:23.051Z,95461
2018-05-11T20:15:18.270Z,95440
2018-05-11T20:20:12.358Z,95458
2018-05-11T20:25:07.166Z,95450
2018-05-11T20:30:01.725Z,95440
2018-05-11T20:34:56.477Z,95451
2018-05-11T20:39:50.854Z,95458
2018-05-11T20:44:45.502Z,95452
2018-05-11T20:49:40.067Z,95463
2018-05-11T20:54:34.760Z,95460
2018-05-11T20:59:29.439Z,95462
2018-05-11T21:04:24.462Z,95462
2018-05-11T21:09:19.501Z,95471
2018-05-11T21:14:14.817Z,95475
2018-05-11T21:19:09.506Z,95482
2018-05-11T21:24:03.899Z,95466
2018-05-11T21:28:58.483Z,95480
2018-05-11T21:33:53.327Z,95476
2018-05-11T21:38:48.066Z,95475
2018-05-11T21:43:42.589Z,95488
2018-05-11T21:48:37.248Z,95485
2018-05-11T21:53:31.695Z,95488
2018-05-11T21:58:26.767Z,95491
2018-05-11T22:03:21.260Z,95487
2018-05-11T22:08:16.361Z,95490
2018-05-11T22:13:10.832Z,95482
2018-05-11T22:18:05.424Z,95483
2018-05-11T22:22:59.810Z,95485
2018-05-11T22:27:54.474Z,95489
2018-05-11T22:32:49.208Z,95477
2018-05-11T22:37:43.553Z,95484
2018-05-11T22:42:37.926Z,95472
2018-05-11T22:47:32.732Z,95473
2018-05-11T22:52:27.398Z,95467
2018-05-11T22:57:22.117Z,95477
2018-05-11T23:02:16.969Z,95470
2018-05-11T23:07:11.911Z,95465
2018-05-11T23:12:06.713Z,95464
2018-05-11T23:17:01.579Z,95465
2018-05-11T23:21:55.955Z,95465
2018-05-11T23:26:51.064Z,95465
2018-05-11T23:31:45.596Z,95477
2018-05-11T23:36:40.258Z,95462
2018-05-11T23:41:34.732Z,95473
2018-05-11T23:46:29.695Z,95471
2018-05-11T23:51:24.561Z,95480
2018-05-11T23:56:19.583Z,95477
